Meteo Giornale » Osservazioni meteo Stati Uniti (USA) » Redmond Roberts Fld
ore: 19:56 - Osservazioni Meteo Redmond Roberts Fld
Lat. 44° 15' N Lon. 121° 8' W Alt. 938 metri s.l.m.
24 °C
Sereno
Temp. 24 Ore
2 °C
29 °C
Nord
20.3 Km/h
Dew point 1 °C
Umidità 22 %
Visibilità 10 Km
Il sole sorge alle ore 06:26
Il sole tramonta alle ore 19:42
| Data e Ora | Cielo e Fenomeni | T °C | DP °C | Um. % | Pres. hPa | Vis. km | Vento km/h | |
|---|---|---|---|---|---|---|---|---|
| Oggi h: 19:56 | Sereno | 24 | 1 | 22 | 1009 | 10 | N 20.3 | |
| Oggi h: 18:56 | Sereno | 26 | 1 | 19 | 1008 | 10 | N 22.2 | |
| Oggi h: 17:56 | Caligine | 28 | -1 | 15 | 1008 | 10 | N/NO 31.5 | |
| Oggi h: 16:56 | Caligine | 29 | -1 | 14 | 1008 | 10 | N/NO 18.5 | |
| Oggi h: 15:56 | Caligine | 29 | -1 | 14 | 1009 | 10 | N 24 | |
| Oggi h: 14:56 | Caligine | 29 | -1 | 14 | 1010 | 10 | NO 16.7 | |
| Oggi h: 13:56 | Caligine | 27 | -1 | 15 | 1011 | 10 | N/NO 14.8 | |
| Oggi h: 12:56 | Caligine | 26 | -1 | 16 | 1012 | 10 | NO 13 | |
| Oggi h: 11:56 | Caligine | 23 | -2 | 18 | 1013 | 10 | O/NO 11.1 | |
| Oggi h: 10:56 | Caligine | 21 | -1 | 22 | 1014 | 14 | N 7.4 | |
| Oggi h: 09:56 | Caligine | 17 | 0 | 31 | 1014 | 13 | N 5.5 | |
| Oggi h: 08:56 | Sereno | 14 | -2 | 32 | 1015 | 10 | N 5.5 | |
| Oggi h: 07:56 | Sereno | 10 | -3 | 39 | 1015 | 10 | N 5.5 | |
| Oggi h: 06:56 | Sereno | 4 | -4 | 55 | 1015 | 10 | N 0 | |
| Oggi h: 05:56 | Sereno | 2 | -4 | 64 | 1015 | 10 | N 0 | |
| Oggi h: 04:56 | Sereno | 6 | -3 | 52 | 1015 | 10 | N 0 | |
| Oggi h: 03:56 | Sereno | 6 | -3 | 52 | 1015 | 10 | S 11.1 | |
| Oggi h: 02:56 | Sereno | 6 | -4 | 48 | 1015 | 10 | S 9.3 | |
| Oggi h: 01:56 | Sereno | 8 | -3 | 45 | 1016 | 10 | S 11.1 | |
| Oggi h: 00:56 | Sereno | 9 | -2 | 45 | 1016 | 14 | S 9.3 | |
| Ieri h: 23:56 | Sereno | 12 | -2 | 37 | 1016 | 10 | O 7.4 | |
| Ieri h: 22:56 | Sereno | 14 | -2 | 32 | 1016 | 10 | O/SO 7.4 | |
| Ieri h: 21:56 | Sereno | 13 | -3 | 32 | 1016 | 10 | N 5.5 | |
| Ieri h: 20:56 | Sereno | 18 | -2 | 25 | 1016 | 10 | N 9.3 | |



